createdAt,value
2023-05-23T00:01:50.867Z,99.90
2023-05-23T00:04:18.897Z,99.90
2023-05-23T00:06:50.821Z,99.90
2023-05-23T00:09:18.102Z,99.90
2023-05-23T00:11:45.687Z,99.90
2023-05-23T00:14:16.159Z,99.90
2023-05-23T00:16:45.214Z,99.90
2023-05-23T00:19:15.129Z,99.90
2023-05-23T00:21:51.321Z,99.90
2023-05-23T00:24:20.576Z,99.90
2023-05-23T00:26:47.660Z,99.90
2023-05-23T00:29:18.290Z,99.90
2023-05-23T00:31:46.804Z,99.90
2023-05-23T00:34:18.036Z,99.90
2023-05-23T00:36:48.215Z,99.90
2023-05-23T00:39:20.078Z,99.90
2023-05-23T00:41:52.697Z,99.90
2023-05-23T00:44:21.372Z,99.90
2023-05-23T00:46:53.451Z,99.90
2023-05-23T00:49:21.218Z,99.90
2023-05-23T00:51:49.940Z,99.90
2023-05-23T00:54:21.224Z,99.90
2023-05-23T00:56:48.824Z,99.90
2023-05-23T00:59:17.263Z,99.90
2023-05-23T01:01:47.447Z,99.90
2023-05-23T01:04:16.970Z,99.90
2023-05-23T01:06:47.207Z,99.90
2023-05-23T01:09:18.565Z,99.90
2023-05-23T01:12:10.611Z,99.90
2023-05-23T01:14:51.998Z,99.90
2023-05-23T01:17:32.280Z,99.90
2023-05-23T01:20:09.104Z,99.90
2023-05-23T01:22:50.709Z,99.90
2023-05-23T01:26:02.622Z,99.90
2023-05-23T01:28:38.181Z,99.90
2023-05-23T01:31:08.304Z,99.90
2023-05-23T01:33:36.450Z,99.90
2023-05-23T01:36:04.146Z,99.90
2023-05-23T01:38:31.118Z,99.90
2023-05-23T01:40:58.497Z,99.90
2023-05-23T01:43:26.133Z,99.90
2023-05-23T01:45:55.508Z,99.90
2023-05-23T01:48:23.656Z,99.90
2023-05-23T01:50:51.324Z,99.90
2023-05-23T01:53:22.536Z,99.90
2023-05-23T01:58:17.719Z,99.90
2023-05-23T02:03:12.425Z,99.90
2023-05-23T02:05:39.792Z,99.90
2023-05-23T02:10:34.496Z,99.90
2023-05-23T02:13:01.475Z,99.90
2023-05-23T02:15:28.470Z,99.90
2023-05-23T02:17:55.405Z,99.90
2023-05-23T02:20:22.419Z,99.90
2023-05-23T02:22:49.336Z,99.90
2023-05-23T02:25:16.350Z,99.90
2023-05-23T02:30:11.231Z,99.90
2023-05-23T02:32:38.249Z,99.90
2023-05-23T02:35:06.321Z,99.90
2023-05-23T02:37:33.280Z,99.90
2023-05-23T02:42:28.573Z,99.90
2023-05-23T02:44:55.633Z,99.90
2023-05-23T02:49:50.009Z,99.90
2023-05-23T02:52:17.225Z,99.90
2023-05-23T02:54:44.141Z,99.90
2023-05-23T02:59:38.371Z,99.90
2023-05-23T03:02:05.585Z,99.90
2023-05-23T03:04:32.441Z,99.90
2023-05-23T03:06:59.677Z,99.90
2023-05-23T03:09:27.037Z,99.90
2023-05-23T03:14:21.351Z,99.90
2023-05-23T03:19:15.840Z,99.90
2023-05-23T03:21:44.387Z,99.90
2023-05-23T03:29:06.644Z,99.90
2023-05-23T03:34:00.936Z,99.90
2023-05-23T03:36:28.448Z,99.90
2023-05-23T03:41:22.732Z,99.90
2023-05-23T03:46:17.166Z,99.90
2023-05-23T03:51:13.521Z,99.90
2023-05-23T03:53:40.514Z,99.90
2023-05-23T03:56:07.472Z,99.90
2023-05-23T03:58:34.467Z,99.90
2023-05-23T04:01:02.269Z,99.90
2023-05-23T04:03:33.055Z,99.90
2023-05-23T04:06:01.046Z,99.90
2023-05-23T04:08:29.652Z,99.90
2023-05-23T04:10:56.604Z,99.90
2023-05-23T04:13:25.018Z,99.90
2023-05-23T04:15:52.730Z,99.90
2023-05-23T04:18:20.112Z,99.90
2023-05-23T04:20:47.033Z,99.90
2023-05-23T04:23:14.270Z,99.90
2023-05-23T04:25:41.510Z,99.90
2023-05-23T04:28:10.559Z,99.90
2023-05-23T04:30:37.495Z,99.90
2023-05-23T04:33:04.554Z,99.90
2023-05-23T04:35:34.242Z,99.90
2023-05-23T04:38:02.115Z,99.90
2023-05-23T04:40:29.744Z,99.90
2023-05-23T04:42:57.297Z,99.90
2023-05-23T04:45:24.251Z,99.90
2023-05-23T04:47:51.461Z,99.90
2023-05-23T04:50:19.123Z,99.90
2023-05-23T04:52:47.085Z,99.90
2023-05-23T04:55:14.194Z,99.90
2023-05-23T04:57:41.177Z,99.90
2023-05-23T05:00:11.644Z,99.90
2023-05-23T05:02:40.356Z,99.90
2023-05-23T05:05:07.910Z,99.90
2023-05-23T05:07:35.866Z,99.90
2023-05-23T05:10:03.845Z,99.90
2023-05-23T05:12:30.865Z,99.90
2023-05-23T05:14:57.817Z,99.90
2023-05-23T05:17:25.089Z,99.90
2023-05-23T05:19:52.173Z,99.90
2023-05-23T05:22:19.113Z,99.90
2023-05-23T05:24:46.173Z,99.90
2023-05-23T05:27:13.204Z,99.90
2023-05-23T05:29:40.160Z,99.90
2023-05-23T05:32:09.162Z,99.90
2023-05-23T05:34:38.001Z,99.90
2023-05-23T05:37:05.436Z,99.90
2023-05-23T05:39:32.393Z,99.90
2023-05-23T05:42:01.441Z,99.90
2023-05-23T05:44:28.387Z,99.90
2023-05-23T05:46:55.800Z,99.90
2023-05-23T05:49:22.793Z,99.90
2023-05-23T05:51:49.804Z,99.90
2023-05-23T05:54:18.393Z,99.90
2023-05-23T05:56:47.343Z,99.90
2023-05-23T06:01:41.738Z,99.90
2023-05-23T06:04:09.391Z,99.90
2023-05-23T06:06:36.699Z,99.90
2023-05-23T06:13:59.483Z,99.90
2023-05-23T06:16:26.616Z,99.90
2023-05-23T06:18:53.701Z,99.90
2023-05-23T06:21:20.738Z,99.90
2023-05-23T06:26:15.019Z,99.90
2023-05-23T06:28:42.081Z,99.90
2023-05-23T06:31:11.946Z,99.90
2023-05-23T06:33:42.025Z,99.90
2023-05-23T06:36:09.057Z,99.90
2023-05-23T06:38:35.974Z,99.90
2023-05-23T06:41:03.962Z,99.90
2023-05-23T06:43:30.927Z,99.90
2023-05-23T06:48:25.199Z,99.90
2023-05-23T06:50:52.228Z,99.90
2023-05-23T06:53:19.421Z,99.90
2023-05-23T06:55:46.513Z,99.90
2023-05-23T06:58:13.537Z,99.90
2023-05-23T07:05:39.262Z,99.90
2023-05-23T07:08:08.027Z,99.90
2023-05-23T07:15:30.048Z,99.90
2023-05-23T07:20:24.533Z,99.90
2023-05-23T07:25:19.860Z,99.90
2023-05-23T07:27:46.956Z,99.90
2023-05-23T07:30:14.468Z,99.90
2023-05-23T07:32:41.577Z,99.90
2023-05-23T07:35:08.803Z,99.90
2023-05-23T07:37:35.810Z,99.90
2023-05-23T07:40:02.792Z,99.90
2023-05-23T07:54:47.336Z,99.90
2023-05-23T08:46:53.865Z,96.50
2023-05-23T08:51:54.557Z,96.40
2023-05-23T09:19:14.539Z,93.60
2023-05-23T09:24:13.167Z,93.60
2023-05-23T09:36:32.684Z,92.30
2023-05-23T09:39:05.099Z,92.30
2023-05-23T09:41:34.876Z,92.50
2023-05-23T09:44:08.546Z,92.70
2023-05-23T09:49:17.450Z,91.00
2023-05-23T09:56:43.764Z,90.90
2023-05-23T09:59:16.234Z,91.90
2023-05-23T10:01:48.285Z,92.20
2023-05-23T10:04:23.661Z,92.00
2023-05-23T10:11:59.768Z,91.90
2023-05-23T10:14:30.115Z,90.80
2023-05-23T10:17:10.549Z,91.40
2023-05-23T10:19:47.391Z,90.40
2023-05-23T10:22:16.964Z,90.00
2023-05-23T10:24:46.821Z,90.20
2023-05-23T10:32:10.599Z,88.80
2023-05-23T10:35:16.677Z,89.40
2023-05-23T10:37:54.091Z,90.10
2023-05-23T10:40:47.556Z,90.30
2023-05-23T10:43:31.082Z,89.10
2023-05-23T10:45:58.142Z,88.10
2023-05-23T10:48:35.574Z,87.90
2023-05-23T10:51:15.966Z,88.10
2023-05-23T10:53:44.852Z,86.50
2023-05-23T10:56:23.691Z,88.30
2023-05-23T10:58:55.633Z,88.80
2023-05-23T11:01:23.811Z,86.60
2023-05-23T11:03:54.812Z,84.50
2023-05-23T11:06:45.121Z,85.90
2023-05-23T11:09:22.383Z,85.80
2023-05-23T11:12:15.804Z,87.30
2023-05-23T11:17:17.804Z,84.40
2023-05-23T11:20:02.540Z,84.30
2023-05-23T11:24:59.407Z,83.50
2023-05-23T11:30:02.258Z,84.10
2023-05-23T11:32:31.410Z,79.20
2023-05-23T11:35:06.621Z,82.80
2023-05-23T11:40:34.094Z,84.70
2023-05-23T11:43:03.922Z,84.40
2023-05-23T11:48:13.236Z,83.10
2023-05-23T11:50:51.947Z,82.20
2023-05-23T11:53:21.955Z,82.90
2023-05-23T11:55:58.331Z,83.00
2023-05-23T11:58:31.269Z,80.10
2023-05-23T12:01:09.632Z,82.10
2023-05-23T12:03:46.863Z,78.10
2023-05-23T12:06:24.973Z,80.70
2023-05-23T12:31:12.582Z,80.70
2023-05-23T12:33:41.379Z,82.00
2023-05-23T12:41:27.389Z,82.20
2023-05-23T12:43:56.748Z,82.40
2023-05-23T12:46:25.560Z,79.50
2023-05-23T12:48:53.291Z,80.60
2023-05-23T12:51:21.171Z,82.10
2023-05-23T12:53:48.317Z,81.20
2023-05-23T12:56:15.459Z,81.70
2023-05-23T13:06:06.953Z,81.90
2023-05-23T13:11:01.328Z,82.50
2023-05-23T13:13:28.384Z,83.00
2023-05-23T13:15:56.382Z,83.20
2023-05-23T13:20:51.237Z,82.60
2023-05-23T13:23:18.338Z,82.80
2023-05-23T13:25:45.371Z,82.70
2023-05-23T13:38:02.337Z,80.10
2023-05-23T13:47:52.656Z,79.60
2023-05-23T13:50:19.849Z,80.80
2023-05-23T13:55:17.661Z,80.60
2023-05-23T14:00:12.742Z,80.20
2023-05-23T14:02:39.913Z,77.90
2023-05-23T14:05:10.157Z,79.90
2023-05-23T14:07:37.179Z,81.00
2023-05-23T14:10:05.295Z,81.30
2023-05-23T14:12:32.394Z,80.90
2023-05-23T14:14:59.408Z,79.20
2023-05-23T14:17:26.936Z,76.90
2023-05-23T14:19:53.960Z,76.50
2023-05-23T14:22:20.985Z,76.50
2023-05-23T14:34:41.833Z,84.30
2023-05-23T14:37:09.111Z,85.30
2023-05-23T14:39:36.299Z,86.20
2023-05-23T14:42:03.430Z,86.00
2023-05-23T14:44:30.638Z,86.10
2023-05-23T14:46:57.687Z,86.60
2023-05-23T14:54:19.887Z,84.60
2023-05-23T14:59:14.441Z,87.10
2023-05-23T15:01:41.876Z,87.60
2023-05-23T15:04:10.044Z,88.30
2023-05-23T15:06:38.784Z,87.30
2023-05-23T15:09:06.183Z,88.10
2023-05-23T15:11:35.096Z,88.30
2023-05-23T15:14:02.308Z,89.20
2023-05-23T15:16:33.191Z,89.10
2023-05-23T15:23:55.939Z,88.50
2023-05-23T15:26:22.842Z,89.70
2023-05-23T15:28:49.826Z,89.40
2023-05-23T15:41:07.932Z,91.00
2023-05-23T15:43:37.711Z,91.20
2023-05-23T15:46:05.543Z,91.20
2023-05-23T15:48:32.585Z,91.40
2023-05-23T15:53:26.916Z,91.10
2023-05-23T16:03:16.114Z,90.80
2023-05-23T16:05:43.306Z,91.10
2023-05-23T16:08:10.527Z,91.30
2023-05-23T16:15:32.206Z,90.60
2023-05-23T16:18:00.030Z,91.10
2023-05-23T16:20:27.105Z,91.00
2023-05-23T16:22:53.986Z,91.20
2023-05-23T16:25:20.952Z,90.90
2023-05-23T16:27:47.973Z,91.20
2023-05-23T16:30:15.106Z,91.10
2023-05-23T16:32:42.119Z,91.50
2023-05-23T16:35:11.147Z,91.70
2023-05-23T16:37:38.834Z,91.50
2023-05-23T16:40:06.718Z,91.90
2023-05-23T16:42:33.868Z,92.10
2023-05-23T16:45:00.971Z,91.70
2023-05-23T16:47:27.953Z,91.70
2023-05-23T16:52:22.504Z,91.80
2023-05-23T16:54:49.562Z,92.20
2023-05-23T16:57:16.538Z,92.30
2023-05-23T16:59:43.566Z,92.40
2023-05-23T17:02:15.057Z,92.20
2023-05-23T17:04:42.234Z,92.30
2023-05-23T17:07:09.778Z,92.30
2023-05-23T17:09:37.307Z,91.80
2023-05-23T17:12:04.584Z,92.10
2023-05-23T17:14:32.076Z,91.80
2023-05-23T17:16:59.032Z,92.00
2023-05-23T17:19:26.375Z,92.10
2023-05-23T17:21:53.633Z,92.30
2023-05-23T17:24:20.581Z,92.20
2023-05-23T17:26:47.584Z,92.30
2023-05-23T17:29:16.443Z,92.30
2023-05-23T17:31:43.944Z,92.40
2023-05-23T17:34:12.525Z,92.50
2023-05-23T17:36:39.508Z,92.70
2023-05-23T17:39:07.249Z,92.70
2023-05-23T17:41:34.223Z,92.50
2023-05-23T17:44:02.447Z,92.60
2023-05-23T17:46:29.523Z,92.90
2023-05-23T17:48:56.752Z,93.10
2023-05-23T17:51:24.020Z,93.20
2023-05-23T17:53:53.740Z,93.20
2023-05-23T17:56:24.953Z,93.20
2023-05-23T17:58:52.791Z,93.50
2023-05-23T18:01:19.820Z,93.70
2023-05-23T18:03:47.256Z,93.70
2023-05-23T18:06:14.351Z,94.00
2023-05-23T18:08:41.913Z,94.20
2023-05-23T18:11:08.989Z,94.30
2023-05-23T18:13:36.148Z,94.60
2023-05-23T18:16:03.176Z,94.50
2023-05-23T18:18:30.233Z,94.70
2023-05-23T18:23:24.703Z,94.60
2023-05-23T18:25:52.102Z,94.80
2023-05-23T18:28:19.278Z,95.00
2023-05-23T18:30:46.345Z,95.10
2023-05-23T18:33:13.739Z,95.20
2023-05-23T18:35:41.189Z,95.20
2023-05-23T18:38:08.304Z,95.20
2023-05-23T18:40:35.275Z,95.30
2023-05-23T18:43:02.226Z,95.40
2023-05-23T18:45:29.231Z,95.20
2023-05-23T18:47:56.563Z,95.50
2023-05-23T18:50:23.751Z,95.50
2023-05-23T18:52:50.972Z,95.50
2023-05-23T18:55:18.087Z,95.60
2023-05-23T18:57:45.016Z,95.70
2023-05-23T19:00:12.651Z,95.70
2023-05-23T19:02:44.470Z,95.80
2023-05-23T19:05:12.687Z,95.80
2023-05-23T19:07:39.861Z,95.80
2023-05-23T19:10:07.314Z,95.90
2023-05-23T19:12:34.467Z,95.80
2023-05-23T19:15:01.413Z,95.80
2023-05-23T19:17:28.403Z,95.90
2023-05-23T19:19:55.692Z,95.90
2023-05-23T19:22:23.049Z,95.90
2023-05-23T19:24:50.092Z,95.90
2023-05-23T19:27:17.032Z,95.90
2023-05-23T19:29:44.671Z,96.10
2023-05-23T19:32:11.857Z,96.10
2023-05-23T19:34:38.897Z,96.30
2023-05-23T19:37:06.208Z,96.20
2023-05-23T19:39:33.222Z,96.20
2023-05-23T19:42:00.227Z,96.20
2023-05-23T19:44:27.142Z,96.30
2023-05-23T19:46:54.121Z,96.40
2023-05-23T19:49:21.159Z,96.50
2023-05-23T19:51:48.122Z,96.30
2023-05-23T19:54:15.507Z,96.60
2023-05-23T19:56:42.563Z,96.70
2023-05-23T19:59:09.630Z,96.80
2023-05-23T20:01:36.709Z,96.90
2023-05-23T20:04:03.907Z,96.80
2023-05-23T20:06:31.420Z,96.90
2023-05-23T20:08:58.363Z,97.10
2023-05-23T20:11:27.142Z,97.20
2023-05-23T20:13:54.226Z,97.30
2023-05-23T20:16:21.280Z,97.50
2023-05-23T20:18:48.425Z,97.50
2023-05-23T20:21:15.712Z,97.20
2023-05-23T20:23:45.165Z,97.70
2023-05-23T20:26:12.485Z,97.60
2023-05-23T20:28:39.602Z,97.80
2023-05-23T20:31:07.155Z,97.80
2023-05-23T20:33:36.785Z,98.10
2023-05-23T20:36:04.860Z,98.00
2023-05-23T20:38:34.110Z,98.30
2023-05-23T20:41:06.651Z,98.10
2023-05-23T20:43:37.483Z,98.40
2023-05-23T20:46:09.436Z,98.40
2023-05-23T20:48:36.469Z,98.70
2023-05-23T20:51:05.792Z,98.70
2023-05-23T20:53:33.273Z,99.00
2023-05-23T20:56:01.306Z,99.20
2023-05-23T20:58:28.282Z,99.50
2023-05-23T21:00:55.991Z,99.70
2023-05-23T21:03:23.170Z,99.80
2023-05-23T21:05:50.222Z,99.90
2023-05-23T21:08:17.158Z,99.90
2023-05-23T21:10:45.818Z,99.90
2023-05-23T21:13:16.162Z,99.90
2023-05-23T21:15:43.202Z,99.90
2023-05-23T21:18:10.486Z,99.90
2023-05-23T21:20:37.482Z,99.90
2023-05-23T21:23:04.409Z,99.90
2023-05-23T21:25:31.430Z,99.90
2023-05-23T21:27:58.486Z,99.90
2023-05-23T21:30:26.464Z,99.90
2023-05-23T21:32:53.573Z,99.90
2023-05-23T21:35:20.853Z,99.90
2023-05-23T21:37:47.844Z,99.90
2023-05-23T21:40:14.862Z,99.90
2023-05-23T21:42:41.872Z,99.90
2023-05-23T21:45:09.384Z,99.90
2023-05-23T21:47:36.389Z,99.90
2023-05-23T21:50:06.324Z,99.90
2023-05-23T21:52:33.334Z,99.90
2023-05-23T21:55:00.315Z,99.90
2023-05-23T21:57:27.274Z,99.90
2023-05-23T21:59:54.236Z,99.90
2023-05-23T22:02:21.322Z,99.90
2023-05-23T22:04:48.717Z,99.90
2023-05-23T22:07:15.809Z,99.90
2023-05-23T22:09:42.708Z,99.90
2023-05-23T22:12:09.864Z,99.90
2023-05-23T22:14:36.836Z,99.90
2023-05-23T22:17:04.427Z,99.90
2023-05-23T22:19:31.423Z,99.90
2023-05-23T22:21:58.428Z,99.90
2023-05-23T22:24:26.386Z,99.90
2023-05-23T22:26:53.415Z,99.90
2023-05-23T22:29:21.192Z,99.90
2023-05-23T22:31:48.644Z,99.90
2023-05-23T22:34:15.783Z,99.90
2023-05-23T22:36:42.744Z,99.90
2023-05-23T22:39:09.786Z,99.90
2023-05-23T22:41:36.721Z,99.90
2023-05-23T22:44:03.764Z,99.90
2023-05-23T22:46:30.926Z,99.90
2023-05-23T22:48:58.229Z,99.90
2023-05-23T22:51:25.146Z,99.90
2023-05-23T22:53:53.052Z,99.90
2023-05-23T22:56:20.072Z,99.90
2023-05-23T22:58:47.006Z,99.90
2023-05-23T23:01:14.132Z,99.90
2023-05-23T23:03:41.443Z,99.90
2023-05-23T23:06:09.469Z,99.90
2023-05-23T23:08:37.836Z,99.90
2023-05-23T23:11:04.923Z,99.90
2023-05-23T23:13:31.986Z,99.90
2023-05-23T23:15:58.878Z,99.90
2023-05-23T23:18:27.038Z,99.90
2023-05-23T23:20:56.809Z,99.90
2023-05-23T23:23:23.970Z,99.90
2023-05-23T23:25:52.481Z,99.90
2023-05-23T23:28:19.903Z,99.90
2023-05-23T23:30:47.009Z,99.90
2023-05-23T23:33:14.739Z,99.90
2023-05-23T23:35:45.407Z,99.90
2023-05-23T23:38:12.584Z,99.90
2023-05-23T23:40:39.630Z,99.90
2023-05-23T23:43:06.597Z,99.90
2023-05-23T23:45:33.627Z,99.90
2023-05-23T23:48:00.575Z,99.90
2023-05-23T23:50:27.702Z,99.90
2023-05-23T23:52:54.749Z,99.90
2023-05-23T23:55:21.742Z,99.90
2023-05-23T23:57:48.829Z,99.90
